• Join FlightAware (Why Join?)
  • Login
  • US Flag 
02:15AM EDT


 

Airport Tracker/Info


-or-


 

Live Flight TrackerFlight Track Log ✈ UAL4380 ✈ 14-Apr-2013 ✈ KMOB - KIAH

Flight Track Log - Related Links

Times and Time Zones

All times are in EDT time to prevent confusion due to time zone crossing. See the UAL4380 flight status page for this flight to view local times or setup timezone preferences in your user account.

Time Position Orientation Groundspeed Altitude Reporting Facility
EDT Latitude Longitude Course Direction KTS MPH feet Rate Location/Type
10:18AM 30.7394 -88.3089 250° West 269 310 2,500  Level Houston Center
10:19AM 30.7261 -88.3894 259° West 213 245 6,100 2,820 Climbing Houston Center
10:20AM 30.7053 -88.4533 249° West 211 243 8,400 2,280 Climbing Houston Center
10:21AM 30.6881 -88.5136 252° West 201 231 10,800 2,280 Climbing Houston Center
10:22AM 30.5935 -88.7072 252° West  Level FlightAware Approximate
10:22AM 30.6722 -88.5786 254° West 207 238 13,100  Level Houston Center
10:23AM 30.5669 -88.8050 252° West  Level FlightAware Approximate
10:24AM 30.5270 -88.9040 250° West  Level FlightAware Approximate
10:24AM 30.6352 -88.6924 254° West  Level FlightAware Approximate
10:25AM 30.6483 -88.7311 254° West 250 288 15,000  Level Houston Center
10:26AM 30.6331 -88.8236 259° West 280 322 16,100 1,020 Climbing Houston Center
10:27AM 30.6153 -88.9256 259° West 311 358 17,100 900 Climbing Houston Center
10:28AM 30.5881 -89.0272 253° West 327 376 18,000 1,320 Climbing Houston Center
10:29AM 30.5569 -89.1222 249° West 321 369 19,900 1,800 Climbing Houston Center
10:30AM 30.5236 -89.2272 250° West 294 338 21,700 1,560 Climbing Houston Center
10:31AM 30.4978 -89.3097 250° West 278 320 23,100 1,140 Climbing Houston Center
10:32AM 30.4719 -89.3950 251° West 279 321 24,100 960 Climbing Houston Center
10:33AM 30.4450 -89.4789 250° West 279 321 25,100 960 Climbing Houston Center
10:34AM 30.4189 -89.5617 250° West 276 318 26,100 1,020 Climbing Houston Center
10:35AM 30.3939 -89.6414 250° West 267 307 27,200 780 Climbing Houston Center
10:36AM 30.3667 -89.7256 249° West 278 320 27,700 780 Climbing Houston Center
10:37AM 30.3317 -89.8253 248° West 321 369 28,800 1,020 Climbing Houston Center
10:38AM 30.2994 -89.9342 251° West 329 379 29,800 540 Climbing Houston Center
10:39AM 30.2658 -90.0389 250° West 347 399 30,000 60 Climbing Houston Center
10:40AM 30.2283 -90.1531 249° West 377 434 30,000  Level Houston Center
10:41AM 30.1911 -90.2694 250° West 385 443 30,000  Level Houston Center
10:42AM 30.1469 -90.4036 249° West 376 433 30,000  Level Houston Center
10:43AM 30.1097 -90.5178 249° West 380 437 30,000  Level Houston Center
10:44AM 30.0722 -90.6328 249° West 382 440 30,000 -60 Level Houston Center
10:45AM 30.0375 -90.7400 250° West 361 415 29,900  Descending Houston Center
10:46AM 30.0114 -90.8469 254° West 348 400 30,000  Climbing Houston Center
10:47AM 29.9850 -90.9672 256° West 377 434 30,000  Level Houston Center
10:48AM 29.9550 -91.0900 254° West 393 452 30,000  Level Houston Center
10:49AM 29.9269 -91.2161 256° West 404 465 30,000  Level Houston Center
10:50AM 29.8931 -91.3678 256° West 408 470 30,000  Level Houston Center
10:51AM 29.8631 -91.4931 255° West 407 468 30,000  Level Houston Center
10:52AM 29.8350 -91.6197 256° West 408 470 30,000  Level Houston Center
10:53AM 29.8042 -91.7453 254° West 404 465 30,000  Level Houston Center
10:54AM 29.7747 -91.8703 255° West 405 466 30,000  Level Houston Center
10:55AM 29.7464 -91.9936 255° West 401 461 30,000  Level Houston Center
10:56AM 29.7167 -92.1178 255° West 403 464 30,000  Level Houston Center
10:57AM 29.6872 -92.2419 255° West 403 464 30,000  Level Houston Center
10:58AM 29.6567 -92.3661 254° West 403 464 30,000 -60 Level Houston Center
10:59AM 29.6219 -92.5164 255° West 405 466 29,900  Descending Houston Center
11:00AM 29.5919 -92.6403 254° West 403 464 30,000  Climbing Houston Center
11:01AM 29.5611 -92.7644 254° West 402 463 30,000 -240 Level Houston Center
11:02AM 29.5311 -92.8867 254° West 400 460 29,600 -960 Descending Houston Center
11:03AM 29.5003 -93.0131 254° West 407 468 28,100 -1,500 Descending Houston Center
11:04AM 29.4878 -93.1414 264° West 408 470 26,600 -1,500 Descending Houston Center
11:06AM 29.4925 -93.2731 272° West 412 474 25,100 -1,500 Descending Houston Center
11:07AM 29.4992 -93.4094 273° West 423 487 23,600 -1,500 Descending Houston Center
11:08AM 29.5039 -93.5389 272° West 409 471 22,100 -1,620 Descending Houston Center
11:09AM 29.5103 -93.6914 273° West 400 460 20,300 -1,680 Descending Houston Center
11:10AM 29.5144 -93.8142 272° West 389 448 18,700 -1,620 Descending Houston Center
11:11AM 29.5186 -93.9294 272° West 368 423 17,100 -1,560 Descending Houston Center
11:12AM 29.5225 -94.0428 272° West 357 411 15,600 -1,560 Descending Houston Center
11:12AM 29.5247 -94.1036 272° West 348 400 14,800 -1,500 Descending Houston Center
11:13AM 29.5267 -94.1511 273° West 346 398 14,100 -1,140 Descending Houston Center
11:14AM 29.5303 -94.2511 272° West 336 387 13,000 -900 Descending Houston Center
11:14AM 29.5311 -94.2925 271° West 300 345 13,000  Level Houston Center
11:15AM 29.5347 -94.3481 274° West 314 361 13,000 -600 Level Houston Center
11:16AM 29.5864 -94.4681 296° West 304 350 11,900 -1,200 Descending Houston Center
11:17AM 29.6192 -94.5444 296° West 311 358 10,600 -1,020 Descending Houston Center
11:18AM 29.6581 -94.6361 296° West 317 365 10,000 -300 Descending Houston Center
11:19AM 29.6967 -94.7269 296° West 318 366 10,000  Level Houston Center
11:20AM 29.7342 -94.8150 296° West 313 360 10,000 -240 Level Houston Center
11:21AM 29.7667 -94.8917 296° West 278 320 9,600 -900 Descending Houston Center
11:22AM 29.7994 -94.9700 296° West 235 270 8,200 -1,440 Descending Houston Center
11:23AM 29.8267 -95.0339 296° West 227 261 6,700 -1,080 Descending Houston Center
11:24AM 29.8542 -95.0981 296° West 226 260 6,000 -360 Descending Houston Center
11:25AM 29.8803 -95.1614 295° West 222 255 6,000  Level Houston Center
11:26AM 29.9006 -95.2250 290° West 218 251 6,000  Level Houston Center
11:27AM 29.9000 -95.2964 270° West 223 257 6,000  Level Houston Center
11:28AM 29.9003 -95.3778 270° West 216 249 6,000  Level Houston Center
11:29AM 29.9011 -95.4486 271° West 220 253 6,000  Level Houston Center
11:30AM 29.9011 -95.5194 270° West 223 257 6,000 -300 Level Houston Center
11:31AM 29.9014 -95.5878 270° West 215 247 5,500 -900 Descending Houston Center
11:32AM 29.9358 -95.6600 299° West 217 250 4,200 -780 Descending Houston Center
11:33AM 29.9814 -95.6306 29° Northeast 249 287 4,000 -600 Descending Houston Center
11:34AM 29.9914 -95.5547 81° East 246 283 3,100 -900 Descending Houston Center